Lady June — WDG4316 — position and weather

sailwx.info

Track history (hours):
 
Tides and Currents Weather Stations Pressure Air Temp Water Temp Dewpoint Dewpoint Depression Visibility Wind Speed Wind Dir Waves Ship Positions

Lady June

Owner: Callais and Sons LLC, Cutoff, LA. More information available from US FCC via Universal Licensing System and Coast Guard Vessel Documentation Center.

Last reported at 2018-Feb-23 00:30 UTC. Time now 2018-Feb-23 00:54 UTC.
Position N 29°49' W 093°59'.

Length 24 m; draft 2.9 m.

Type: Tug. MMSI: 367535270.

Date/timePositionNaut miles runAvg speedWind from/ knotsBaromVisibWave heightAir tempDewpointWater temp
2018-Feb-23 00:30N 29°49' W 093°59'0 0.0
2018-Feb-23 00:00N 29°49' W 093°59'1 1.8
2018-Feb-22 23:30N 29°49' W 093°60'3 5.4
2018-Feb-22 22:59N 29°47' W 094°02'3 6.0
2018-Feb-22 22:30N 29°45' W 094°04'2 4.5
2018-Feb-22 22:00N 29°44' W 094°06'3 5.5
2018-Feb-22 21:30N 29°42' W 094°09'3 6.0
2018-Feb-22 21:00N 29°41' W 094°12'3 5.9
2018-Feb-22 20:30N 29°39' W 094°15'3 5.6
2018-Feb-22 20:00N 29°38' W 094°18'3 5.3
2018-Feb-22 19:30N 29°37' W 094°21'3 5.3
2018-Feb-22 19:00N 29°36' W 094°23'2 0.9
2018-Feb-22 17:18N 29°35' W 094°25'0 0.1
2018-Feb-22 16:59N 29°35' W 094°25'2 3.6
2018-Feb-22 16:28N 29°34' W 094°26'23 1.3
2018-Feb-21 22:30N 29°29' W 094°52'4 7.3
2018-Feb-21 22:00N 29°32' W 094°54'17 0.6
2018-Feb-20 17:17N 29°46' W 095°06'1 0.4
2018-Feb-20 14:10N 29°46' W 095°05'1 5.7
2018-Feb-20 14:00N 29°47' W 095°04'0 0.0
2018-Feb-20 13:30N 29°47' W 095°04'0 0.1
2018-Feb-20 10:59N 29°47' W 095°04'2 1.4
2018-Feb-20 09:51N 29°46' W 095°05'0 1.1
2018-Feb-20 09:25N 29°46' W 095°06'0 0.0
2018-Feb-20 08:57N 29°46' W 095°06'1 0.8
2018-Feb-20 08:20N 29°46' W 095°05'2 7.0
2018-Feb-20 07:59N 29°44' W 095°08'3 0.7
2018-Feb-20 04:19N 29°45' W 095°11'3 7.6
2018-Feb-20 03:55N 29°44' W 095°07'3 0.3
2018-Feb-19 19:38N 29°46' W 095°05'1 5.3
2018-Feb-19 19:29N 29°45' W 095°04'3 5.2
2018-Feb-19 18:51N 29°43' W 095°01'2 5.2
2018-Feb-19 18:30N 29°42' W 094°60'3 6.0
2018-Feb-19 18:00N 29°39' W 094°58'3 6.5
2018-Feb-19 17:31N 29°36' W 094°57'3 6.1
2018-Feb-19 17:00N 29°34' W 094°55'3 6.2
2018-Feb-19 16:30N 29°31' W 094°53'4 6.4
2018-Feb-19 15:57N 29°28' W 094°51'3 6.5
2018-Feb-19 15:27N 29°25' W 094°49'3 6.2
2018-Feb-19 14:56N 29°22' W 094°47'2 5.6
2018-Feb-19 14:30N 29°24' W 094°45'3 5.3
2018-Feb-19 13:59N 29°26' W 094°43'2 4.4
2018-Feb-19 13:29N 29°27' W 094°41'2 4.6
2018-Feb-19 13:00N 29°28' W 094°39'2 3.7
2018-Feb-19 12:27N 29°29' W 094°37'0 0.0
2018-Feb-19 11:52N 29°29' W 094°37'0 0.0
2018-Feb-19 11:26N 29°29' W 094°37'0 0.0
2018-Feb-19 11:00N 29°29' W 094°37'0 0.0
2018-Feb-19 10:29N 29°29' W 094°37'0 0.0
2018-Feb-19 09:59N 29°29' W 094°37'0 0.0
2018-Feb-19 09:31N 29°29' W 094°37'0 0.0
2018-Feb-19 08:59N 29°29' W 094°37'0 0.0
2018-Feb-19 08:29N 29°29' W 094°37'0 0.0
2018-Feb-19 08:00N 29°29' W 094°37'0 0.0
2018-Feb-19 07:30N 29°29' W 094°37'0 0.0
2018-Feb-19 07:00N 29°29' W 094°37'0 0.0
2018-Feb-19 06:30N 29°29' W 094°37'0 0.0
2018-Feb-19 06:00N 29°29' W 094°37'0 0.0
2018-Feb-19 05:30N 29°29' W 094°37'0 0.0
2018-Feb-19 05:00N 29°29' W 094°37'0 0.0
2018-Feb-19 04:30N 29°29' W 094°37'0 0.0
2018-Feb-19 04:00N 29°29' W 094°37'0 0.0
2018-Feb-19 03:24N 29°29' W 094°37'0 0.0
2018-Feb-19 02:11N 29°29' W 094°37'0 0.0
2018-Feb-19 01:26N 29°29' W 094°37'0 0.2
2018-Feb-18 23:40N 29°29' W 094°36'1 3.8
2018-Feb-18 23:24N 29°29' W 094°35'2 4.3
2018-Feb-18 23:00N 29°30' W 094°33'4 4.1
2018-Feb-18 21:58N 29°32' W 094°29'1 2.6
2018-Feb-18 21:30N 29°33' W 094°28'1 1.7
2018-Feb-18 20:53N 29°34' W 094°28'2 4.1
2018-Feb-18 20:27N 29°34' W 094°25'2 4.6
2018-Feb-18 20:00N 29°36' W 094°24'2 4.0
2018-Feb-18 19:31N 29°36' W 094°22'2 4.2
2018-Feb-18 18:59N 29°37' W 094°20'2 4.8
2018-Feb-18 18:30N 29°38' W 094°18'2 4.2
2018-Feb-18 18:00N 29°39' W 094°15'1 2.7
2018-Feb-18 17:30N 29°40' W 094°14'0 0.0
2018-Feb-18 17:00N 29°40' W 094°14'0 0.0
2018-Feb-18 16:30N 29°40' W 094°14'0 0.0
2018-Feb-18 16:00N 29°40' W 094°14'0 0.0
2018-Feb-18 15:30N 29°40' W 094°14'0 0.0
2018-Feb-18 15:00N 29°40' W 094°14'0 0.0
2018-Feb-18 14:30N 29°40' W 094°14'0 0.0
2018-Feb-18 14:00N 29°40' W 094°14'0 0.0
2018-Feb-18 13:30N 29°40' W 094°14'0 0.0
2018-Feb-18 13:00N 29°40' W 094°14'0 0.0
2018-Feb-18 12:30N 29°40' W 094°14'0 0.0
2018-Feb-18 12:00N 29°40' W 094°14'0 0.0
2018-Feb-18 11:30N 29°40' W 094°14'0 0.0
2018-Feb-18 11:01N 29°40' W 094°14'0 0.0
2018-Feb-18 10:30N 29°40' W 094°14'0 0.0
2018-Feb-18 10:00N 29°40' W 094°14'0 0.0
2018-Feb-18 09:30N 29°40' W 094°14'0 0.0
2018-Feb-18 09:00N 29°40' W 094°14'0 0.0
2018-Feb-18 08:30N 29°40' W 094°14'0 0.0
2018-Feb-18 08:00N 29°40' W 094°14'0 0.0
2018-Feb-18 07:30N 29°40' W 094°14'0 0.0
2018-Feb-18 07:00N 29°40' W 094°14'0 0.0
2018-Feb-18 06:30N 29°40' W 094°14'0 0.0
2018-Feb-18 06:00N 29°40' W 094°14'0 0.0
2018-Feb-18 05:30N 29°40' W 094°14'0 0.0
2018-Feb-18 05:00N 29°40' W 094°14'0 0.1
2018-Feb-18 04:30N 29°40' W 094°14'0 0.1
2018-Feb-18 04:00N 29°40' W 094°14'0 0.0
2018-Feb-18 03:30N 29°40' W 094°14'0 0.0
2018-Feb-18 03:00N 29°40' W 094°14'0 0.0
2018-Feb-18 02:28N 29°40' W 094°14'0 0.0
2018-Feb-18 02:00N 29°40' W 094°14'0 0.0
2018-Feb-18 01:30N 29°40' W 094°14'0 0.0
2018-Feb-18 00:58N 29°40' W 094°14'0 0.0
2018-Feb-18 00:30N 29°40' W 094°14'0 0.1
2018-Feb-18 00:00N 29°40' W 094°14'1 1.2
2018-Feb-17 23:30N 29°40' W 094°13'0 0.1
2018-Feb-17 23:00N 29°40' W 094°13'1 1.2
2018-Feb-17 22:30N 29°41' W 094°13'1 2.3
2018-Feb-17 22:00N 29°41' W 094°12'2 4.0
2018-Feb-17 21:30N 29°42' W 094°09'2 4.7
2018-Feb-17 21:00N 29°43' W 094°07'2 3.9
2018-Feb-17 20:30N 29°44' W 094°05'3 5.0
2018-Feb-17 20:00N 29°46' W 094°03'2 5.0
2018-Feb-17 19:30N 29°47' W 094°01'2 4.9
2018-Feb-17 19:00N 29°49' W 093°59'2 4.4
2018-Feb-17 18:30N 29°51' W 093°57'4 7.2
2018-Feb-17 18:01N 29°54' W 093°55'4 7.2
2018-Feb-17 17:30N 29°56' W 093°52'3 5.9
2018-Feb-17 17:00N 29°59' W 093°50'3 5.4
2018-Feb-17 16:30N 29°60' W 093°47'2 4.1
2018-Feb-17 16:00N 30°01' W 093°46'2 3.1
2018-Feb-17 15:29N 30°02' W 093°47'0 0.1
2018-Feb-17 15:00N 30°02' W 093°47'0 0.0
2018-Feb-17 14:30N 30°02' W 093°47'0 0.4
2018-Feb-17 14:00N 30°02' W 093°47'0 0.1
2018-Feb-17 13:30N 30°02' W 093°47'0 0.0
2018-Feb-17 13:00N 30°02' W 093°47'0 0.0
2018-Feb-17 12:30N 30°02' W 093°47'0 0.0
2018-Feb-17 12:00N 30°02' W 093°47'0 0.0
2018-Feb-17 11:30N 30°02' W 093°47'0 0.0
2018-Feb-17 11:00N 30°02' W 093°47'0 0.0
2018-Feb-17 10:30N 30°02' W 093°47'0 0.0
2018-Feb-17 10:00N 30°02' W 093°47'0 0.0
2018-Feb-17 09:30N 30°02' W 093°47'0 0.0
2018-Feb-17 09:00N 30°02' W 093°47'0 0.0
2018-Feb-17 08:30N 30°02' W 093°47'0 0.0
2018-Feb-17 08:00N 30°02' W 093°47'0 0.0
2018-Feb-17 07:30N 30°02' W 093°47'0 0.0
2018-Feb-17 07:00N 30°02' W 093°47'0 0.0
2018-Feb-17 06:30N 30°02' W 093°47'0 0.0
2018-Feb-17 06:01N 30°02' W 093°47'0 0.0
2018-Feb-17 05:30N 30°02' W 093°47'0 0.0
2018-Feb-17 05:00N 30°02' W 093°47'0 0.0
2018-Feb-17 04:30N 30°02' W 093°47'0 0.0
2018-Feb-17 04:00N 30°02' W 093°47'0 0.0
2018-Feb-17 03:30N 30°02' W 093°47'0 0.0
2018-Feb-17 02:59N 30°02' W 093°47'0 0.0
2018-Feb-17 02:30N 30°02' W 093°47'0 0.0
2018-Feb-17 02:00N 30°02' W 093°47'0 0.0
2018-Feb-17 01:30N 30°02' W 093°47'0 0.0
2018-Feb-17 01:00N 30°02' W 093°47'0 0.0
2018-Feb-17 00:30N 30°02' W 093°47'0 0.0
2018-Feb-17 00:00N 30°02' W 093°47'0 0.0
2018-Feb-16 23:30N 30°02' W 093°47'0 0.0
2018-Feb-16 23:00N 30°02' W 093°47'0 0.0
2018-Feb-16 22:28N 30°02' W 093°47'0 1.0
2018-Feb-16 22:00N 30°02' W 093°48'0 0.0
2018-Feb-16 21:30N 30°02' W 093°48'0 0.1
2018-Feb-16 21:00N 30°02' W 093°48'0 0.1
2018-Feb-16 20:30N 30°02' W 093°48'0 0.0
2018-Feb-16 20:00N 30°02' W 093°48'1 1.1
2018-Feb-16 19:30N 30°02' W 093°47'2 5.0
2018-Feb-16 19:00N 30°01' W 093°45'4 7.3
2018-Feb-16 18:31N 30°05' W 093°43'1 1.2
2018-Feb-16 18:00N 30°05' W 093°44'2 4.8
2018-Feb-16 17:30N 30°03' W 093°44'4 7.2
2018-Feb-16 17:00N 30°00' W 093°46'2 5.0
2018-Feb-16 16:30N 29°59' W 093°49'3 5.0
2018-Feb-16 16:00N 29°58' W 093°52'0 0.1
2018-Feb-16 15:30N 29°58' W 093°52'0 0.0
2018-Feb-16 15:00N 29°58' W 093°52'1 1.1
2018-Feb-16 14:30N 29°58' W 093°51'0 0.0
2018-Feb-16 14:00N 29°58' W 093°51'0 0.0
2018-Feb-16 13:30N 29°58' W 093°51'0 0.0
2018-Feb-16 13:00N 29°58' W 093°51'0 0.0
2018-Feb-16 12:30N 29°58' W 093°51'1 1.1
2018-Feb-16 12:00N 29°58' W 093°52'0 0.0
2018-Feb-16 11:30N 29°58' W 093°52'0 0.0
2018-Feb-16 11:00N 29°58' W 093°52'0 0.0
2018-Feb-16 10:30N 29°58' W 093°52'0 0.0
2018-Feb-16 10:00N 29°58' W 093°52'0 0.0
2018-Feb-16 09:30N 29°58' W 093°52'0 0.0
2018-Feb-16 09:00N 29°58' W 093°52'0 0.0
2018-Feb-16 08:30N 29°58' W 093°52'0 0.0
2018-Feb-16 08:00N 29°58' W 093°52'0 0.0
2018-Feb-16 07:30N 29°58' W 093°52'0 0.0
2018-Feb-16 07:00N 29°58' W 093°52'0 0.0
2018-Feb-16 06:30N 29°58' W 093°52'0 0.0
2018-Feb-16 06:00N 29°58' W 093°52'1 2.2
2018-Feb-16 05:30N 29°59' W 093°52'3 5.0
2018-Feb-16 05:00N 29°60' W 093°55'1 1.3
2018-Feb-16 04:30N 29°59' W 093°56'1 1.2
2018-Feb-16 04:00N 29°60' W 093°57'0 0.0
2018-Feb-16 03:30N 29°60' W 093°57'0 0.0
2018-Feb-16 03:00N 29°60' W 093°57'0 0.0
2018-Feb-16 02:30N 29°60' W 093°57'0 0.0
2018-Feb-16 02:00N 29°60' W 093°57'0 0.0
2018-Feb-16 01:30N 29°60' W 093°57'0 0.0
2018-Feb-16 01:00N 29°60' W 093°57'1 1.7
2018-Feb-16 00:30N 29°59' W 093°56'4 7.5
2018-Feb-16 00:00N 29°58' W 093°51'3 5.3
2018-Feb-15 23:30N 29°59' W 093°49'3 6.9
2018-Feb-15 23:00N 30°01' W 093°46'2 4.0
2018-Feb-15 22:29N 30°02' W 093°48'0 0.0
2018-Feb-15 21:59N 30°02' W 093°48'0 0.0
2018-Feb-15 21:29N 30°02' W 093°48'0 0.0
2018-Feb-15 20:56N 30°02' W 093°48'0 0.0
2018-Feb-15 20:29N 30°02' W 093°48'0 0.0
2018-Feb-15 19:47N 30°02' W 093°48'0 0.0
2018-Feb-15 19:29N 30°02' W 093°48'0 0.0
2018-Feb-15 18:59N 30°02' W 093°48'0 0.0
2018-Feb-15 18:29N 30°02' W 093°48'0 0.0
2018-Feb-15 17:59N 30°02' W 093°48'0 0.0
2018-Feb-15 17:29N 30°02' W 093°48'0 0.0
2018-Feb-15 16:56N 30°02' W 093°48'0 0.0
2018-Feb-15 16:29N 30°02' W 093°48'0 0.0
2018-Feb-15 15:59N 30°02' W 093°48'0 0.0
2018-Feb-15 15:29N 30°02' W 093°48'0 0.0
2018-Feb-15 14:59N 30°02' W 093°48'0 0.0
2018-Feb-15 14:29N 30°02' W 093°48'0 0.0
2018-Feb-15 13:59N 30°02' W 093°48'0 0.0
2018-Feb-15 13:26N 30°02' W 093°48'0 0.0
2018-Feb-15 12:59N 30°02' W 093°48'0 0.0
2018-Feb-15 12:29N 30°02' W 093°48'0 0.0
2018-Feb-15 11:59N 30°02' W 093°48'0 0.0
2018-Feb-15 11:29N 30°02' W 093°48'0 0.0
2018-Feb-15 10:56N 30°02' W 093°48'0 0.0
2018-Feb-15 10:29N 30°02' W 093°48'0 0.0
2018-Feb-15 09:59N 30°02' W 093°48'0 0.0
2018-Feb-15 09:26N 30°02' W 093°48'0 0.0
2018-Feb-15 08:59N 30°02' W 093°48'0 0.0
2018-Feb-15 08:29N 30°02' W 093°48'0 0.0
2018-Feb-15 07:59N 30°02' W 093°48'0 0.0
2018-Feb-15 07:29N 30°02' W 093°48'0 0.0
2018-Feb-15 06:59N 30°02' W 093°48'0 0.0
2018-Feb-15 06:23N 30°02' W 093°48'0 0.0
2018-Feb-15 05:59N 30°02' W 093°48'0 0.0
2018-Feb-15 05:29N 30°02' W 093°48'0 0.0
2018-Feb-15 04:59N 30°02' W 093°48'0 0.0
2018-Feb-15 04:29N 30°02' W 093°48'0 0.0
2018-Feb-15 03:59N 30°02' W 093°48'0 0.0
2018-Feb-15 03:26N 30°02' W 093°48'0 0.0
2018-Feb-15 02:59N 30°02' W 093°48'0 0.0
2018-Feb-15 02:28N 30°02' W 093°48'0 0.0
2018-Feb-15 01:59N 30°02' W 093°48'0 0.0
2018-Feb-15 01:29N 30°02' W 093°48'0 0.0
2018-Feb-15 00:59N 30°02' W 093°48'0 0.0
2018-Feb-15 00:29N 30°02' W 093°48'0 0.0
2018-Feb-14 23:58N 30°02' W 093°48'0 0.0
2018-Feb-14 23:29N 30°02' W 093°48'0 0.0
2018-Feb-14 22:55N 30°02' W 093°48'0 0.0
2018-Feb-14 22:26N 30°02' W 093°48'0 0.0
2018-Feb-14 21:59N 30°02' W 093°48'0 0.0
2018-Feb-14 21:29N 30°02' W 093°48'0 0.0
2018-Feb-14 20:59N 30°02' W 093°48'0 0.0
2018-Feb-14 20:26N 30°02' W 093°48'0 0.0
2018-Feb-14 19:58N 30°02' W 093°48'0 0.0
2018-Feb-14 19:29N 30°02' W 093°48'0 0.0
2018-Feb-14 18:58N 30°02' W 093°48'0 0.0
2018-Feb-14 18:29N 30°02' W 093°48'0 0.0
2018-Feb-14 17:56N 30°02' W 093°48'0 0.0
2018-Feb-14 17:29N 30°02' W 093°48'0 0.0
2018-Feb-14 16:59N 30°02' W 093°48'0 0.0
2018-Feb-14 16:29N 30°02' W 093°48'0 0.0
2018-Feb-14 15:58N 30°02' W 093°48'0 0.0
2018-Feb-14 15:25N 30°02' W 093°48'0 0.0
2018-Feb-14 14:58N 30°02' W 093°48'0 0.0
2018-Feb-14 14:28N 30°02' W 093°48'0 0.0
2018-Feb-14 13:58N 30°02' W 093°48'0 0.0
2018-Feb-14 13:28N 30°02' W 093°48'0 0.0
2018-Feb-14 12:59N 30°02' W 093°48'0 0.0
2018-Feb-14 12:28N 30°02' W 093°48'0 0.0
2018-Feb-14 11:59N 30°02' W 093°48'0 0.0
2018-Feb-14 11:28N 30°02' W 093°48'0 0.0
2018-Feb-14 10:58N 30°02' W 093°48'0 0.0
2018-Feb-14 10:28N 30°02' W 093°48'0 0.0
2018-Feb-14 09:59N 30°02' W 093°48'0 0.0
2018-Feb-14 09:28N 30°02' W 093°48'0 0.0
2018-Feb-14 08:59N 30°02' W 093°48'0 0.0
2018-Feb-14 08:28N 30°02' W 093°48'0 0.0
2018-Feb-14 07:58N 30°02' W 093°48'0 0.0
2018-Feb-14 07:28N 30°02' W 093°48'0 0.0
2018-Feb-14 06:58N 30°02' W 093°48'0 0.0
2018-Feb-14 06:28N 30°02' W 093°48'0 0.0
2018-Feb-14 05:58N 30°02' W 093°48'0 0.0
2018-Feb-14 05:28N 30°02' W 093°48'0 0.0
2018-Feb-14 04:58N 30°02' W 093°48'0 0.0
2018-Feb-14 04:28N 30°02' W 093°48'0 0.0
2018-Feb-14 03:58N 30°02' W 093°48'0 0.0
2018-Feb-14 03:25N 30°02' W 093°48'0 0.0
2018-Feb-14 02:59N 30°02' W 093°48'0 0.0
2018-Feb-14 02:28N 30°02' W 093°48'0 0.0
2018-Feb-14 01:55N 30°02' W 093°48'0 0.0
2018-Feb-14 01:28N 30°02' W 093°48'0 0.0
2018-Feb-14 00:58N 30°02' W 093°48'0 0.0
2018-Feb-14 00:28N 30°02' W 093°48'0 0.0
2018-Feb-13 23:58N 30°02' W 093°48'0 0.0
2018-Feb-13 23:28N 30°02' W 093°48'0 0.0
2018-Feb-13 22:58N 30°02' W 093°48'0 0.0
2018-Feb-13 22:28N 30°02' W 093°48'0 0.0
2018-Feb-13 21:59N 30°02' W 093°48'0 0.0
2018-Feb-13 21:28N 30°02' W 093°48'0 0.0
2018-Feb-13 20:58N 30°02' W 093°48'0 0.0
2018-Feb-13 20:28N 30°02' W 093°48'0 0.0
2018-Feb-13 19:58N 30°02' W 093°48'0 0.0
2018-Feb-13 19:25N 30°02' W 093°48'0 0.0
2018-Feb-13 18:58N 30°02' W 093°48'0 0.0
2018-Feb-13 18:28N 30°02' W 093°48'0 0.0
2018-Feb-13 17:58N 30°02' W 093°48'0 0.0
2018-Feb-13 17:28N 30°02' W 093°48'0 0.0
2018-Feb-13 16:58N 30°02' W 093°48'0 0.0
2018-Feb-13 16:28N 30°02' W 093°48'0 0.0
2018-Feb-13 15:58N 30°02' W 093°48'0 0.0
2018-Feb-13 15:19N 30°02' W 093°48'0 0.0
2018-Feb-13 14:58N 30°02' W 093°48'0 0.0
2018-Feb-13 14:28N 30°02' W 093°48'0 0.0
2018-Feb-13 13:58N 30°02' W 093°48'0 0.0
2018-Feb-13 13:28N 30°02' W 093°48'0 0.0
2018-Feb-13 12:58N 30°02' W 093°48'0 0.0
2018-Feb-13 12:28N 30°02' W 093°48'0 0.0
2018-Feb-13 11:58N 30°02' W 093°48'0 0.0
2018-Feb-13 11:28N 30°02' W 093°48'0 0.0
2018-Feb-13 10:58N 30°02' W 093°48'0 0.0
2018-Feb-13 10:28N 30°02' W 093°48'0 0.0
2018-Feb-13 09:58N 30°02' W 093°48'0 0.0
2018-Feb-13 09:28N 30°02' W 093°48'0 0.0
2018-Feb-13 08:58N 30°02' W 093°48'0 0.0
2018-Feb-13 08:28N 30°02' W 093°48'0 0.0
2018-Feb-13 07:58N 30°02' W 093°48'0 0.0
2018-Feb-13 07:25N 30°02' W 093°48'0 0.0
2018-Feb-13 06:52N 30°02' W 093°48'0 0.0
2018-Feb-13 06:28N 30°02' W 093°48'0 0.0
2018-Feb-13 05:58N 30°02' W 093°48'0 0.0
2018-Feb-13 05:28N 30°02' W 093°48'0 0.0
2018-Feb-13 04:58N 30°02' W 093°48'0 0.0
2018-Feb-13 04:28N 30°02' W 093°48'0 0.0
2018-Feb-13 03:58N 30°02' W 093°48'0 0.0
2018-Feb-13 03:28N 30°02' W 093°48'0 0.0
2018-Feb-13 02:58N 30°02' W 093°48'0 0.0
2018-Feb-13 02:28N 30°02' W 093°48'0 0.0
2018-Feb-13 01:58N 30°02' W 093°48'0 0.0
2018-Feb-13 01:22N 30°02' W 093°48'0 0.0
2018-Feb-13 00:58N 30°02' W 093°48'  
Track history (hours):
 
Tides and Currents Weather Stations Pressure Air Temp Water Temp Dewpoint Dewpoint Depression Visibility Wind Speed Wind Dir Waves Ship Positions

Lady June

Owner: Callais and Sons LLC, Cutoff, LA. More information available from US FCC via Universal Licensing System and Coast Guard Vessel Documentation Center.

Last reported at 2018-Feb-23 00:30 UTC. Time now 2018-Feb-23 00:54 UTC.
Position N 29°49' W 093°59'.

Length 24 m; draft 2.9 m.

Type: Tug. MMSI: 367535270.

Date/timePositionNaut miles runAvg speedWind from/ knotsBaromVisibWave heightAir tempDewpointWater temp
2018-Feb-23 00:30N 29°49' W 093°59'0 0.0
2018-Feb-23 00:00N 29°49' W 093°59'1 1.8
2018-Feb-22 23:30N 29°49' W 093°60'3 5.4
2018-Feb-22 22:59N 29°47' W 094°02'3 6.0
2018-Feb-22 22:30N 29°45' W 094°04'2 4.5
2018-Feb-22 22:00N 29°44' W 094°06'3 5.5
2018-Feb-22 21:30N 29°42' W 094°09'3 6.0
2018-Feb-22 21:00N 29°41' W 094°12'3 5.9
2018-Feb-22 20:30N 29°39' W 094°15'3 5.6
2018-Feb-22 20:00N 29°38' W 094°18'3 5.3
2018-Feb-22 19:30N 29°37' W 094°21'3 5.3
2018-Feb-22 19:00N 29°36' W 094°23'2 0.9
2018-Feb-22 17:18N 29°35' W 094°25'0 0.1
2018-Feb-22 16:59N 29°35' W 094°25'2 3.6
2018-Feb-22 16:28N 29°34' W 094°26'23 1.3
2018-Feb-21 22:30N 29°29' W 094°52'4 7.3
2018-Feb-21 22:00N 29°32' W 094°54'17 0.6
2018-Feb-20 17:17N 29°46' W 095°06'1 0.4
2018-Feb-20 14:10N 29°46' W 095°05'1 5.7
2018-Feb-20 14:00N 29°47' W 095°04'0 0.0
2018-Feb-20 13:30N 29°47' W 095°04'0 0.1
2018-Feb-20 10:59N 29°47' W 095°04'2 1.4
2018-Feb-20 09:51N 29°46' W 095°05'0 1.1
2018-Feb-20 09:25N 29°46' W 095°06'0 0.0
2018-Feb-20 08:57N 29°46' W 095°06'1 0.8
2018-Feb-20 08:20N 29°46' W 095°05'2 7.0
2018-Feb-20 07:59N 29°44' W 095°08'3 0.7
2018-Feb-20 04:19N 29°45' W 095°11'3 7.6
2018-Feb-20 03:55N 29°44' W 095°07'3 0.3
2018-Feb-19 19:38N 29°46' W 095°05'1 5.3
2018-Feb-19 19:29N 29°45' W 095°04'3 5.2
2018-Feb-19 18:51N 29°43' W 095°01'2 5.2
2018-Feb-19 18:30N 29°42' W 094°60'3 6.0
2018-Feb-19 18:00N 29°39' W 094°58'3 6.5
2018-Feb-19 17:31N 29°36' W 094°57'3 6.1
2018-Feb-19 17:00N 29°34' W 094°55'3 6.2
2018-Feb-19 16:30N 29°31' W 094°53'4 6.4
2018-Feb-19 15:57N 29°28' W 094°51'3 6.5
2018-Feb-19 15:27N 29°25' W 094°49'3 6.2
2018-Feb-19 14:56N 29°22' W 094°47'2 5.6
2018-Feb-19 14:30N 29°24' W 094°45'3 5.3
2018-Feb-19 13:59N 29°26' W 094°43'2 4.4
2018-Feb-19 13:29N 29°27' W 094°41'2 4.6
2018-Feb-19 13:00N 29°28' W 094°39'2 3.7
2018-Feb-19 12:27N 29°29' W 094°37'0 0.0
2018-Feb-19 11:52N 29°29' W 094°37'0 0.0
2018-Feb-19 11:26N 29°29' W 094°37'0 0.0
2018-Feb-19 11:00N 29°29' W 094°37'0 0.0
2018-Feb-19 10:29N 29°29' W 094°37'0 0.0
2018-Feb-19 09:59N 29°29' W 094°37'0 0.0
2018-Feb-19 09:31N 29°29' W 094°37'0 0.0
2018-Feb-19 08:59N 29°29' W 094°37'0 0.0
2018-Feb-19 08:29N 29°29' W 094°37'0 0.0
2018-Feb-19 08:00N 29°29' W 094°37'0 0.0
2018-Feb-19 07:30N 29°29' W 094°37'0 0.0
2018-Feb-19 07:00N 29°29' W 094°37'0 0.0
2018-Feb-19 06:30N 29°29' W 094°37'0 0.0
2018-Feb-19 06:00N 29°29' W 094°37'0 0.0
2018-Feb-19 05:30N 29°29' W 094°37'0 0.0
2018-Feb-19 05:00N 29°29' W 094°37'0 0.0
2018-Feb-19 04:30N 29°29' W 094°37'0 0.0
2018-Feb-19 04:00N 29°29' W 094°37'0 0.0
2018-Feb-19 03:24N 29°29' W 094°37'0 0.0
2018-Feb-19 02:11N 29°29' W 094°37'0 0.0
2018-Feb-19 01:26N 29°29' W 094°37'0 0.2
2018-Feb-18 23:40N 29°29' W 094°36'1 3.8
2018-Feb-18 23:24N 29°29' W 094°35'2 4.3
2018-Feb-18 23:00N 29°30' W 094°33'4 4.1
2018-Feb-18 21:58N 29°32' W 094°29'1 2.6
2018-Feb-18 21:30N 29°33' W 094°28'1 1.7
2018-Feb-18 20:53N 29°34' W 094°28'2 4.1
2018-Feb-18 20:27N 29°34' W 094°25'2 4.6
2018-Feb-18 20:00N 29°36' W 094°24'2 4.0
2018-Feb-18 19:31N 29°36' W 094°22'2 4.2
2018-Feb-18 18:59N 29°37' W 094°20'2 4.8
2018-Feb-18 18:30N 29°38' W 094°18'2 4.2
2018-Feb-18 18:00N 29°39' W 094°15'1 2.7
2018-Feb-18 17:30N 29°40' W 094°14'0 0.0
2018-Feb-18 17:00N 29°40' W 094°14'0 0.0
2018-Feb-18 16:30N 29°40' W 094°14'0 0.0
2018-Feb-18 16:00N 29°40' W 094°14'0 0.0
2018-Feb-18 15:30N 29°40' W 094°14'0 0.0
2018-Feb-18 15:00N 29°40' W 094°14'0 0.0
2018-Feb-18 14:30N 29°40' W 094°14'0 0.0
2018-Feb-18 14:00N 29°40' W 094°14'0 0.0
2018-Feb-18 13:30N 29°40' W 094°14'0 0.0
2018-Feb-18 13:00N 29°40' W 094°14'0 0.0
2018-Feb-18 12:30N 29°40' W 094°14'0 0.0
2018-Feb-18 12:00N 29°40' W 094°14'0 0.0
2018-Feb-18 11:30N 29°40' W 094°14'0 0.0
2018-Feb-18 11:01N 29°40' W 094°14'0 0.0
2018-Feb-18 10:30N 29°40' W 094°14'0 0.0
2018-Feb-18 10:00N 29°40' W 094°14'0 0.0
2018-Feb-18 09:30N 29°40' W 094°14'0 0.0
2018-Feb-18 09:00N 29°40' W 094°14'0 0.0
2018-Feb-18 08:30N 29°40' W 094°14'0 0.0
2018-Feb-18 08:00N 29°40' W 094°14'0 0.0
2018-Feb-18 07:30N 29°40' W 094°14'0 0.0
2018-Feb-18 07:00N 29°40' W 094°14'0 0.0
2018-Feb-18 06:30N 29°40' W 094°14'0 0.0
2018-Feb-18 06:00N 29°40' W 094°14'0 0.0
2018-Feb-18 05:30N 29°40' W 094°14'0 0.0
2018-Feb-18 05:00N 29°40' W 094°14'0 0.1
2018-Feb-18 04:30N 29°40' W 094°14'0 0.1
2018-Feb-18 04:00N 29°40' W 094°14'0 0.0
2018-Feb-18 03:30N 29°40' W 094°14'0 0.0
2018-Feb-18 03:00N 29°40' W 094°14'0 0.0
2018-Feb-18 02:28N 29°40' W 094°14'0 0.0
2018-Feb-18 02:00N 29°40' W 094°14'0 0.0
2018-Feb-18 01:30N 29°40' W 094°14'0 0.0
2018-Feb-18 00:58N 29°40' W 094°14'0 0.0
2018-Feb-18 00:30N 29°40' W 094°14'0 0.1
2018-Feb-18 00:00N 29°40' W 094°14'1 1.2
2018-Feb-17 23:30N 29°40' W 094°13'0 0.1
2018-Feb-17 23:00N 29°40' W 094°13'1 1.2
2018-Feb-17 22:30N 29°41' W 094°13'1 2.3
2018-Feb-17 22:00N 29°41' W 094°12'2 4.0
2018-Feb-17 21:30N 29°42' W 094°09'2 4.7
2018-Feb-17 21:00N 29°43' W 094°07'2 3.9
2018-Feb-17 20:30N 29°44' W 094°05'3 5.0
2018-Feb-17 20:00N 29°46' W 094°03'2 5.0
2018-Feb-17 19:30N 29°47' W 094°01'2 4.9
2018-Feb-17 19:00N 29°49' W 093°59'2 4.4
2018-Feb-17 18:30N 29°51' W 093°57'4 7.2
2018-Feb-17 18:01N 29°54' W 093°55'4 7.2
2018-Feb-17 17:30N 29°56' W 093°52'3 5.9
2018-Feb-17 17:00N 29°59' W 093°50'3 5.4
2018-Feb-17 16:30N 29°60' W 093°47'2 4.1
2018-Feb-17 16:00N 30°01' W 093°46'2 3.1
2018-Feb-17 15:29N 30°02' W 093°47'0 0.1
2018-Feb-17 15:00N 30°02' W 093°47'0 0.0
2018-Feb-17 14:30N 30°02' W 093°47'0 0.4
2018-Feb-17 14:00N 30°02' W 093°47'0 0.1
2018-Feb-17 13:30N 30°02' W 093°47'0 0.0
2018-Feb-17 13:00N 30°02' W 093°47'0 0.0
2018-Feb-17 12:30N 30°02' W 093°47'0 0.0
2018-Feb-17 12:00N 30°02' W 093°47'0 0.0
2018-Feb-17 11:30N 30°02' W 093°47'0 0.0
2018-Feb-17 11:00N 30°02' W 093°47'0 0.0
2018-Feb-17 10:30N 30°02' W 093°47'0 0.0
2018-Feb-17 10:00N 30°02' W 093°47'0 0.0
2018-Feb-17 09:30N 30°02' W 093°47'0 0.0
2018-Feb-17 09:00N 30°02' W 093°47'0 0.0
2018-Feb-17 08:30N 30°02' W 093°47'0 0.0
2018-Feb-17 08:00N 30°02' W 093°47'0 0.0
2018-Feb-17 07:30N 30°02' W 093°47'0 0.0
2018-Feb-17 07:00N 30°02' W 093°47'0 0.0
2018-Feb-17 06:30N 30°02' W 093°47'0 0.0
2018-Feb-17 06:01N 30°02' W 093°47'0 0.0
2018-Feb-17 05:30N 30°02' W 093°47'0 0.0
2018-Feb-17 05:00N 30°02' W 093°47'0 0.0
2018-Feb-17 04:30N 30°02' W 093°47'0 0.0
2018-Feb-17 04:00N 30°02' W 093°47'0 0.0
2018-Feb-17 03:30N 30°02' W 093°47'0 0.0
2018-Feb-17 02:59N 30°02' W 093°47'0 0.0
2018-Feb-17 02:30N 30°02' W 093°47'0 0.0
2018-Feb-17 02:00N 30°02' W 093°47'0 0.0
2018-Feb-17 01:30N 30°02' W 093°47'0 0.0
2018-Feb-17 01:00N 30°02' W 093°47'0 0.0
2018-Feb-17 00:30N 30°02' W 093°47'0 0.0
2018-Feb-17 00:00N 30°02' W 093°47'0 0.0
2018-Feb-16 23:30N 30°02' W 093°47'0 0.0
2018-Feb-16 23:00N 30°02' W 093°47'0 0.0
2018-Feb-16 22:28N 30°02' W 093°47'0 1.0
2018-Feb-16 22:00N 30°02' W 093°48'0 0.0
2018-Feb-16 21:30N 30°02' W 093°48'0 0.1
2018-Feb-16 21:00N 30°02' W 093°48'0 0.1
2018-Feb-16 20:30N 30°02' W 093°48'0 0.0
2018-Feb-16 20:00N 30°02' W 093°48'1 1.1
2018-Feb-16 19:30N 30°02' W 093°47'2 5.0
2018-Feb-16 19:00N 30°01' W 093°45'4 7.3
2018-Feb-16 18:31N 30°05' W 093°43'1 1.2
2018-Feb-16 18:00N 30°05' W 093°44'2 4.8
2018-Feb-16 17:30N 30°03' W 093°44'4 7.2
2018-Feb-16 17:00N 30°00' W 093°46'2 5.0
2018-Feb-16 16:30N 29°59' W 093°49'3 5.0
2018-Feb-16 16:00N 29°58' W 093°52'0 0.1
2018-Feb-16 15:30N 29°58' W 093°52'0 0.0
2018-Feb-16 15:00N 29°58' W 093°52'1 1.1
2018-Feb-16 14:30N 29°58' W 093°51'0 0.0
2018-Feb-16 14:00N 29°58' W 093°51'0 0.0
2018-Feb-16 13:30N 29°58' W 093°51'0 0.0
2018-Feb-16 13:00N 29°58' W 093°51'0 0.0
2018-Feb-16 12:30N 29°58' W 093°51'1 1.1
2018-Feb-16 12:00N 29°58' W 093°52'0 0.0
2018-Feb-16 11:30N 29°58' W 093°52'0 0.0
2018-Feb-16 11:00N 29°58' W 093°52'0 0.0
2018-Feb-16 10:30N 29°58' W 093°52'0 0.0
2018-Feb-16 10:00N 29°58' W 093°52'0 0.0
2018-Feb-16 09:30N 29°58' W 093°52'0 0.0
2018-Feb-16 09:00N 29°58' W 093°52'0 0.0
2018-Feb-16 08:30N 29°58' W 093°52'0 0.0
2018-Feb-16 08:00N 29°58' W 093°52'0 0.0
2018-Feb-16 07:30N 29°58' W 093°52'0 0.0
2018-Feb-16 07:00N 29°58' W 093°52'0 0.0
2018-Feb-16 06:30N 29°58' W 093°52'0 0.0
2018-Feb-16 06:00N 29°58' W 093°52'1 2.2
2018-Feb-16 05:30N 29°59' W 093°52'3 5.0
2018-Feb-16 05:00N 29°60' W 093°55'1 1.3
2018-Feb-16 04:30N 29°59' W 093°56'1 1.2
2018-Feb-16 04:00N 29°60' W 093°57'0 0.0
2018-Feb-16 03:30N 29°60' W 093°57'0 0.0
2018-Feb-16 03:00N 29°60' W 093°57'0 0.0
2018-Feb-16 02:30N 29°60' W 093°57'0 0.0
2018-Feb-16 02:00N 29°60' W 093°57'0 0.0
2018-Feb-16 01:30N 29°60' W 093°57'0 0.0
2018-Feb-16 01:00N 29°60' W 093°57'1 1.7
2018-Feb-16 00:30N 29°59' W 093°56'4 7.5
2018-Feb-16 00:00N 29°58' W 093°51'3 5.3
2018-Feb-15 23:30N 29°59' W 093°49'3 6.9
2018-Feb-15 23:00N 30°01' W 093°46'2 4.0
2018-Feb-15 22:29N 30°02' W 093°48'0 0.0
2018-Feb-15 21:59N 30°02' W 093°48'0 0.0
2018-Feb-15 21:29N 30°02' W 093°48'0 0.0
2018-Feb-15 20:56N 30°02' W 093°48'0 0.0
2018-Feb-15 20:29N 30°02' W 093°48'0 0.0
2018-Feb-15 19:47N 30°02' W 093°48'0 0.0
2018-Feb-15 19:29N 30°02' W 093°48'0 0.0
2018-Feb-15 18:59N 30°02' W 093°48'0 0.0
2018-Feb-15 18:29N 30°02' W 093°48'0 0.0
2018-Feb-15 17:59N 30°02' W 093°48'0 0.0
2018-Feb-15 17:29N 30°02' W 093°48'0 0.0
2018-Feb-15 16:56N 30°02' W 093°48'0 0.0
2018-Feb-15 16:29N 30°02' W 093°48'0 0.0
2018-Feb-15 15:59N 30°02' W 093°48'0 0.0
2018-Feb-15 15:29N 30°02' W 093°48'0 0.0
2018-Feb-15 14:59N 30°02' W 093°48'0 0.0
2018-Feb-15 14:29N 30°02' W 093°48'0 0.0
2018-Feb-15 13:59N 30°02' W 093°48'0 0.0
2018-Feb-15 13:26N 30°02' W 093°48'0 0.0
2018-Feb-15 12:59N 30°02' W 093°48'0 0.0
2018-Feb-15 12:29N 30°02' W 093°48'0 0.0
2018-Feb-15 11:59N 30°02' W 093°48'0 0.0
2018-Feb-15 11:29N 30°02' W 093°48'0 0.0
2018-Feb-15 10:56N 30°02' W 093°48'0 0.0
2018-Feb-15 10:29N 30°02' W 093°48'0 0.0
2018-Feb-15 09:59N 30°02' W 093°48'0 0.0
2018-Feb-15 09:26N 30°02' W 093°48'0 0.0
2018-Feb-15 08:59N 30°02' W 093°48'0 0.0
2018-Feb-15 08:29N 30°02' W 093°48'0 0.0
2018-Feb-15 07:59N 30°02' W 093°48'0 0.0
2018-Feb-15 07:29N 30°02' W 093°48'0 0.0
2018-Feb-15 06:59N 30°02' W 093°48'0 0.0
2018-Feb-15 06:23N 30°02' W 093°48'0 0.0
2018-Feb-15 05:59N 30°02' W 093°48'0 0.0
2018-Feb-15 05:29N 30°02' W 093°48'0 0.0
2018-Feb-15 04:59N 30°02' W 093°48'0 0.0
2018-Feb-15 04:29N 30°02' W 093°48'0 0.0
2018-Feb-15 03:59N 30°02' W 093°48'0 0.0
2018-Feb-15 03:26N 30°02' W 093°48'0 0.0
2018-Feb-15 02:59N 30°02' W 093°48'0 0.0
2018-Feb-15 02:28N 30°02' W 093°48'0 0.0
2018-Feb-15 01:59N 30°02' W 093°48'0 0.0
2018-Feb-15 01:29N 30°02' W 093°48'0 0.0
2018-Feb-15 00:59N 30°02' W 093°48'0 0.0
2018-Feb-15 00:29N 30°02' W 093°48'0 0.0
2018-Feb-14 23:58N 30°02' W 093°48'0 0.0
2018-Feb-14 23:29N 30°02' W 093°48'0 0.0
2018-Feb-14 22:55N 30°02' W 093°48'0 0.0
2018-Feb-14 22:26N 30°02' W 093°48'0 0.0
2018-Feb-14 21:59N 30°02' W 093°48'0 0.0
2018-Feb-14 21:29N 30°02' W 093°48'0 0.0
2018-Feb-14 20:59N 30°02' W 093°48'0 0.0
2018-Feb-14 20:26N 30°02' W 093°48'0 0.0
2018-Feb-14 19:58N 30°02' W 093°48'0 0.0
2018-Feb-14 19:29N 30°02' W 093°48'0 0.0
2018-Feb-14 18:58N 30°02' W 093°48'0 0.0
2018-Feb-14 18:29N 30°02' W 093°48'0 0.0
2018-Feb-14 17:56N 30°02' W 093°48'0 0.0
2018-Feb-14 17:29N 30°02' W 093°48'0 0.0
2018-Feb-14 16:59N 30°02' W 093°48'0 0.0
2018-Feb-14 16:29N 30°02' W 093°48'0 0.0
2018-Feb-14 15:58N 30°02' W 093°48'0 0.0
2018-Feb-14 15:25N 30°02' W 093°48'0 0.0
2018-Feb-14 14:58N 30°02' W 093°48'0 0.0
2018-Feb-14 14:28N 30°02' W 093°48'0 0.0
2018-Feb-14 13:58N 30°02' W 093°48'0 0.0
2018-Feb-14 13:28N 30°02' W 093°48'0 0.0
2018-Feb-14 12:59N 30°02' W 093°48'0 0.0
2018-Feb-14 12:28N 30°02' W 093°48'0 0.0
2018-Feb-14 11:59N 30°02' W 093°48'0 0.0
2018-Feb-14 11:28N 30°02' W 093°48'0 0.0
2018-Feb-14 10:58N 30°02' W 093°48'0 0.0
2018-Feb-14 10:28N 30°02' W 093°48'0 0.0
2018-Feb-14 09:59N 30°02' W 093°48'0 0.0
2018-Feb-14 09:28N 30°02' W 093°48'0 0.0
2018-Feb-14 08:59N 30°02' W 093°48'0 0.0
2018-Feb-14 08:28N 30°02' W 093°48'0 0.0
2018-Feb-14 07:58N 30°02' W 093°48'0 0.0
2018-Feb-14 07:28N 30°02' W 093°48'0 0.0
2018-Feb-14 06:58N 30°02' W 093°48'0 0.0
2018-Feb-14 06:28N 30°02' W 093°48'0 0.0
2018-Feb-14 05:58N 30°02' W 093°48'0 0.0
2018-Feb-14 05:28N 30°02' W 093°48'0 0.0
2018-Feb-14 04:58N 30°02' W 093°48'0 0.0
2018-Feb-14 04:28N 30°02' W 093°48'0 0.0
2018-Feb-14 03:58N 30°02' W 093°48'0 0.0
2018-Feb-14 03:25N 30°02' W 093°48'0 0.0
2018-Feb-14 02:59N 30°02' W 093°48'0 0.0
2018-Feb-14 02:28N 30°02' W 093°48'0 0.0
2018-Feb-14 01:55N 30°02' W 093°48'0 0.0
2018-Feb-14 01:28N 30°02' W 093°48'0 0.0
2018-Feb-14 00:58N 30°02' W 093°48'0 0.0
2018-Feb-14 00:28N 30°02' W 093°48'0 0.0
2018-Feb-13 23:58N 30°02' W 093°48'0 0.0
2018-Feb-13 23:28N 30°02' W 093°48'0 0.0
2018-Feb-13 22:58N 30°02' W 093°48'0 0.0
2018-Feb-13 22:28N 30°02' W 093°48'0 0.0
2018-Feb-13 21:59N 30°02' W 093°48'0 0.0
2018-Feb-13 21:28N 30°02' W 093°48'0 0.0
2018-Feb-13 20:58N 30°02' W 093°48'0 0.0
2018-Feb-13 20:28N 30°02' W 093°48'0 0.0
2018-Feb-13 19:58N 30°02' W 093°48'0 0.0
2018-Feb-13 19:25N 30°02' W 093°48'0 0.0
2018-Feb-13 18:58N 30°02' W 093°48'0 0.0
2018-Feb-13 18:28N 30°02' W 093°48'0 0.0
2018-Feb-13 17:58N 30°02' W 093°48'0 0.0
2018-Feb-13 17:28N 30°02' W 093°48'0 0.0
2018-Feb-13 16:58N 30°02' W 093°48'0 0.0
2018-Feb-13 16:28N 30°02' W 093°48'0 0.0
2018-Feb-13 15:58N 30°02' W 093°48'0 0.0
2018-Feb-13 15:19N 30°02' W 093°48'0 0.0
2018-Feb-13 14:58N 30°02' W 093°48'0 0.0
2018-Feb-13 14:28N 30°02' W 093°48'0 0.0
2018-Feb-13 13:58N 30°02' W 093°48'0 0.0
2018-Feb-13 13:28N 30°02' W 093°48'0 0.0
2018-Feb-13 12:58N 30°02' W 093°48'0 0.0
2018-Feb-13 12:28N 30°02' W 093°48'0 0.0
2018-Feb-13 11:58N 30°02' W 093°48'0 0.0
2018-Feb-13 11:28N 30°02' W 093°48'0 0.0
2018-Feb-13 10:58N 30°02' W 093°48'0 0.0
2018-Feb-13 10:28N 30°02' W 093°48'0 0.0
2018-Feb-13 09:58N 30°02' W 093°48'0 0.0
2018-Feb-13 09:28N 30°02' W 093°48'0 0.0
2018-Feb-13 08:58N 30°02' W 093°48'0 0.0
2018-Feb-13 08:28N 30°02' W 093°48'0 0.0
2018-Feb-13 07:58N 30°02' W 093°48'0 0.0
2018-Feb-13 07:25N 30°02' W 093°48'0 0.0
2018-Feb-13 06:52N 30°02' W 093°48'0 0.0
2018-Feb-13 06:28N 30°02' W 093°48'0 0.0
2018-Feb-13 05:58N 30°02' W 093°48'0 0.0
2018-Feb-13 05:28N 30°02' W 093°48'0 0.0
2018-Feb-13 04:58N 30°02' W 093°48'0 0.0
2018-Feb-13 04:28N 30°02' W 093°48'0 0.0
2018-Feb-13 03:58N 30°02' W 093°48'0 0.0
2018-Feb-13 03:28N 30°02' W 093°48'0 0.0
2018-Feb-13 02:58N 30°02' W 093°48'0 0.0
2018-Feb-13 02:28N 30°02' W 093°48'0 0.0
2018-Feb-13 01:58N 30°02' W 093°48'0 0.0
2018-Feb-13 01:22N 30°02' W 093°48'0 0.0
2018-Feb-13 00:58N 30°02' W 093°48'  

Dump ship's entire track history